Time;durP1;ratioP1;P1;durP2;ratioP2;P2;SDS_P1;SDS_P2;PMS_P1;PMS_P2;Temp;Humidity;BMP_temperature;BMP_pressure;BME280_temperature;BME280_humidity;BME280_pressure;Samples;Min_cycle;Max_cycle;Signal;HPM_P1;HPM_P2
2023/11/18 00:01:40;;;;;;;31.30;13.30;;;;;;;5.80;100.00;98846.23;135217;1282;22533;-73
2023/11/18 00:04:43;;;;;;;33.50;12.50;;;;;;;5.79;100.00;98848.17;135273;1276;22529;-74
2023/11/18 00:07:46;;;;;;;;;;;;;;;5.63;100.00;98849.16;135233;1282;22516;-73
2023/11/18 00:10:48;;;;;;;30.60;12.60;;;;;;;5.76;100.00;98850.20;135243;1282;22551;-72
2023/11/18 00:13:51;;;;;;;28.50;12.00;;;;;;;5.79;100.00;98847.31;135225;1282;22543;-71
2023/11/18 00:16:53;;;;;;;;;;;;;;;5.72;100.00;98845.16;135257;1282;22530;-71
2023/11/18 00:19:56;;;;;;;30.40;11.40;;;;;;;5.73;100.00;98850.67;135245;1282;22599;-71
2023/11/18 00:22:58;;;;;;;;;;;;;;;5.69;100.00;98858.48;135254;1264;23139;-72
2023/11/18 00:26:01;;;;;;;30.20;11.60;;;;;;;5.68;100.00;98869.61;135252;1282;22592;-72
2023/11/18 00:29:04;;;;;;;31.10;11.50;;;;;;;5.80;100.00;98866.52;135245;1282;22538;-69
2023/11/18 00:32:07;;;;;;;29.30;11.20;;;;;;;5.73;100.00;98866.48;135266;1282;22535;-73
2023/11/18 00:35:10;;;;;;;;;;;;;;;5.70;100.00;98873.53;135275;1282;22517;-73
2023/11/18 00:38:13;;;;;;;29.10;11.40;;;;;;;5.59;100.00;98867.37;135217;1282;24346;-72
2023/11/18 00:41:17;;;;;;;30.40;11.80;;;;;;;5.61;100.00;98867.33;135234;1282;22845;-70
2023/11/18 00:44:19;;;;;;;30.20;12.30;;;;;;;5.68;100.00;98862.70;135266;1282;22649;-72
2023/11/18 00:47:23;;;;;;;31.90;13.10;;;;;;;5.59;100.00;98863.73;135216;1282;22573;-73
2023/11/18 00:50:25;;;;;;;29.70;11.30;;;;;;;5.59;100.00;98871.37;135243;1263;22540;-70
2023/11/18 00:53:28;;;;;;;29.90;12.10;;;;;;;5.67;100.00;98871.39;135249;1263;22565;-71
2023/11/18 00:56:32;;;;;;;28.90;11.50;;;;;;;5.77;100.00;98870.47;135238;1282;25356;-69
2023/11/18 00:59:35;;;;;;;32.20;12.40;;;;;;;5.73;100.00;98870.45;135242;1282;22556;-72
2023/11/18 01:02:38;;;;;;;;;;;;;;;5.80;100.00;98870.71;135237;1282;22551;-72
2023/11/18 01:05:41;;;;;;;31.10;11.90;;;;;;;5.79;100.00;98866.41;135223;1263;24253;-72
2023/11/18 01:08:44;;;;;;;30.40;12.40;;;;;;;5.83;100.00;98866.73;135283;1282;22539;-71
2023/11/18 01:11:47;;;;;;;28.90;11.70;;;;;;;5.83;100.00;98868.67;135254;1282;22549;-72
2023/11/18 01:14:49;;;;;;;;;;;;;;;5.93;100.00;98865.48;135234;1282;22560;-70
2023/11/18 01:17:52;;;;;;;29.20;12.10;;;;;;;6.09;100.00;98864.67;135240;1282;22770;-71
2023/11/18 01:20:54;;;;;;;28.70;12.00;;;;;;;6.13;100.00;98860.02;135245;1282;23144;-70
2023/11/18 01:23:57;;;;;;;29.20;12.20;;;;;;;6.15;100.00;98866.02;135265;1282;22551;-72
2023/11/18 01:27:00;;;;;;;34.00;12.60;;;;;;;6.20;100.00;98857.64;135293;1282;25475;-72
2023/11/18 01:30:04;;;;;;;33.00;13.70;;;;;;;6.06;100.00;98857.36;135231;1282;24318;-71
2023/11/18 01:33:08;;;;;;;31.40;12.00;;;;;;;5.88;100.00;98854.06;135260;1282;22533;-71
2023/11/18 01:36:12;;;;;;;31.20;12.50;;;;;;;5.87;100.00;98856.36;135240;1282;22563;-72
2023/11/18 01:39:15;;;;;;;30.30;12.40;;;;;;;5.92;100.00;98854.78;135244;1282;22530;-73
2023/11/18 01:42:17;;;;;;;29.80;12.20;;;;;;;5.88;100.00;98858.58;135225;1273;22544;-70
2023/11/18 01:45:20;;;;;;;28.00;11.10;;;;;;;5.90;100.00;98859.54;131160;1282;5382226;-71
2023/11/18 01:48:22;;;;;;;;;;;;;;;5.87;100.00;98861.71;135209;1282;24224;-72
2023/11/18 01:51:25;;;;;;;26.70;10.60;;;;;;;5.85;100.00;98859.90;135235;1264;22776;-71
2023/11/18 01:54:28;;;;;;;28.00;11.20;;;;;;;5.79;100.00;98857.54;135226;1282;25370;-71
2023/11/18 01:57:31;;;;;;;31.10;10.90;;;;;;;5.95;100.00;98859.70;135212;1282;22549;-71
2023/11/18 02:00:34;;;;;;;;;;;;;;;5.95;100.00;98862.65;135259;1274;22520;-72
2023/11/18 02:03:37;;;;;;;;;;;;;;;5.94;100.00;98859.71;135265;1282;22531;-72
2023/11/18 02:06:40;;;;;;;28.80;10.40;;;;;;;5.95;100.00;98859.88;135259;1282;22552;-71
2023/11/18 02:09:43;;;;;;;26.50;9.50;;;;;;;5.88;100.00;98859.08;135240;1282;24385;-70
2023/11/18 02:12:47;;;;;;;23.80;9.30;;;;;;;6.02;100.00;98851.23;135201;1282;24395;-69
2023/11/18 02:15:50;;;;;;;28.20;9.90;;;;;;;6.06;100.00;98850.89;135155;1274;22764;-71
2023/11/18 02:18:53;;;;;;;26.70;9.60;;;;;;;5.95;100.00;98856.23;135138;1282;24048;-70
2023/11/18 02:21:56;;;;;;;24.40;8.60;;;;;;;5.82;100.00;98858.11;135216;1282;22539;-72
2023/11/18 02:24:59;;;;;;;23.40;8.40;;;;;;;5.89;100.00;98860.80;135242;1282;22544;-70
2023/11/18 02:28:02;;;;;;;25.70;9.20;;;;;;;5.88;100.00;98859.79;135268;1281;22592;-69
2023/11/18 02:31:04;;;;;;;23.90;8.50;;;;;;;5.83;100.00;98860.32;135260;1282;22532;-72
2023/11/18 02:34:08;;;;;;;25.50;8.90;;;;;;;5.80;100.00;98865.48;135254;1282;22555;-71
2023/11/18 02:37:12;;;;;;;26.60;9.20;;;;;;;5.78;100.00;98871.46;135256;1282;22549;-70
2023/11/18 02:40:15;;;;;;;26.40;9.60;;;;;;;5.77;100.00;98869.45;135250;1282;22532;-71
2023/11/18 02:43:18;;;;;;;25.40;8.80;;;;;;;5.80;100.00;98870.02;135247;1265;22554;-70
2023/11/18 02:46:20;;;;;;;;;;;;;;;5.78;100.00;98872.84;135294;1282;24372;-69
2023/11/18 02:49:23;;;;;;;;;;;;;;;5.90;100.00;98876.04;135270;1282;22544;-70
2023/11/18 02:52:25;;;;;;;25.50;8.70;;;;;;;5.94;100.00;98883.66;135222;1282;22544;-73
2023/11/18 02:55:28;;;;;;;;;;;;;;;5.81;100.00;98885.93;135276;1282;22529;-71
2023/11/18 02:58:31;;;;;;;24.30;8.60;;;;;;;5.77;100.00;98890.95;135263;1282;22559;-73
2023/11/18 03:01:33;;;;;;;;;;;;;;;5.64;100.00;98893.73;135281;1282;22560;-71
2023/11/18 03:04:36;;;;;;;23.90;8.50;;;;;;;5.55;100.00;98894.92;135253;1273;22549;-72
2023/11/18 03:07:38;;;;;;;;;;;;;;;5.59;100.00;98897.74;135244;1282;22536;-73
2023/11/18 03:10:44;;;;;;;24.60;8.30;;;;;;;5.47;100.00;98898.55;135250;1282;22527;-72
2023/11/18 03:13:47;;;;;;;23.20;8.10;;;;;;;5.49;100.00;98902.48;135257;1282;24370;-74
2023/11/18 03:16:49;;;;;;;25.30;9.10;;;;;;;5.48;100.00;98903.19;135234;1264;22640;-71
2023/11/18 03:19:53;;;;;;;23.30;8.00;;;;;;;5.56;100.00;98909.64;135253;1282;22498;-70
2023/11/18 03:22:55;;;;;;;22.50;7.50;;;;;;;5.50;100.00;98910.40;135304;1282;22542;-72
2023/11/18 03:25:58;;;;;;;25.60;7.90;;;;;;;5.48;100.00;98909.95;135291;1282;22536;-73
2023/11/18 03:29:01;;;;;;;25.10;8.10;;;;;;;5.37;100.00;98915.77;135270;1282;22548;-71
2023/11/18 03:32:05;;;;;;;23.50;7.30;;;;;;;5.42;100.00;98912.98;135281;1282;25495;-72
2023/11/18 03:35:08;;;;;;;22.80;7.90;;;;;;;5.48;100.00;98912.54;135260;1282;22536;-71
2023/11/18 03:38:11;;;;;;;25.00;7.80;;;;;;;5.48;100.00;98914.30;135276;1282;22559;-72
2023/11/18 03:41:14;;;;;;;23.30;8.00;;;;;;;5.55;100.00;98913.00;135280;1282;22529;-73
2023/11/18 03:44:17;;;;;;;23.10;7.40;;;;;;;5.52;100.00;98917.61;135271;1282;22634;-70
2023/11/18 03:47:19;;;;;;;24.90;7.40;;;;;;;5.52;100.00;98919.33;135233;1282;22580;-72
2023/11/18 03:50:22;;;;;;;24.10;8.40;;;;;;;5.59;100.00;98920.14;135245;1282;22591;-72
2023/11/18 03:53:24;;;;;;;;;;;;;;;5.64;100.00;98921.30;135281;1282;22536;-71
2023/11/18 03:56:28;;;;;;;21.90;7.00;;;;;;;5.65;100.00;98929.58;135259;1264;22538;-71
2023/11/18 03:59:31;;;;;;;22.10;7.00;;;;;;;5.62;100.00;98929.17;135275;1282;22551;-72
2023/11/18 04:02:35;;;;;;;26.10;7.80;;;;;;;5.73;100.00;98925.98;135243;1282;22574;-72
2023/11/18 04:05:41;;;;;;;25.10;7.60;;;;;;;5.72;100.00;98932.44;135278;1282;22560;-72
2023/11/18 04:08:43;;;;;;;24.30;7.90;;;;;;;5.71;100.00;98934.55;135266;1282;25335;-70
2023/11/18 04:11:46;;;;;;;22.30;7.40;;;;;;;5.68;100.00;98932.41;135275;1282;22559;-72
2023/11/18 04:14:48;;;;;;;;;;;;;;;5.64;100.00;98933.11;135285;1264;22556;-72
2023/11/18 04:17:52;;;;;;;23.10;7.10;;;;;;;5.64;100.00;98933.11;135240;1282;22551;-71
2023/11/18 04:20:54;;;;;;;23.90;8.50;;;;;;;5.68;100.00;98937.80;135279;1264;22932;-72
2023/11/18 04:23:57;;;;;;;22.90;7.00;;;;;;;5.71;100.00;98942.36;135218;1282;22556;-71
2023/11/18 04:26:59;;;;;;;;;;;;;;;5.72;100.00;98936.95;135251;1282;25355;-71
2023/11/18 04:30:02;;;;;;;22.40;7.50;;;;;;;5.76;100.00;98931.77;135292;1282;22532;-71
2023/11/18 04:33:05;;;;;;;;;;;;;;;5.80;100.00;98936.11;135224;1282;22524;-70
2023/11/18 04:36:09;;;;;;;22.40;7.60;;;;;;;5.76;100.00;98945.45;135205;1282;22645;-71
2023/11/18 04:39:12;;;;;;;24.00;7.20;;;;;;;5.74;100.00;98942.93;135214;1282;23041;-72
2023/11/18 04:42:15;;;;;;;21.80;7.30;;;;;;;5.76;100.00;98939.73;135227;1282;24409;-70
2023/11/18 04:45:18;;;;;;;;;;;;;;;5.58;100.00;98942.02;135277;1282;22533;-71
2023/11/18 04:48:21;;;;;;;23.10;7.40;;;;;;;5.56;100.00;98943.98;135262;1282;22536;-70
2023/11/18 04:51:23;;;;;;;22.80;8.00;;;;;;;5.60;100.00;98940.04;135268;1282;25750;-70
2023/11/18 04:54:26;;;;;;;25.20;8.10;;;;;;;5.51;100.00;98946.42;135267;1282;24212;-70
2023/11/18 04:57:29;;;;;;;23.10;8.10;;;;;;;5.58;100.00;98943.91;135286;1282;22549;-70
2023/11/18 05:00:32;;;;;;;25.50;8.20;;;;;;;5.68;100.00;98942.81;135284;1282;23887;-71
2023/11/18 05:03:35;;;;;;;22.80;7.50;;;;;;;5.72;100.00;98947.56;135287;1282;22544;-71
2023/11/18 05:06:37;;;;;;;;;;;;;;;5.62;100.00;98950.00;135280;1282;22526;-71
2023/11/18 05:09:40;;;;;;;22.90;7.40;;;;;;;5.54;100.00;98949.25;135273;1259;22529;-68
2023/11/18 05:12:43;;;;;;;;;;;;;;;5.55;100.00;98956.17;135295;1282;22520;-70
2023/11/18 05:15:46;;;;;;;26.00;8.90;;;;;;;5.65;100.00;98958.73;135265;1264;24214;-70
2023/11/18 05:18:48;;;;;;;24.90;8.90;;;;;;;5.69;100.00;98960.15;135229;1282;25598;-72
2023/11/18 05:21:51;;;;;;;;;;;;;;;5.69;100.00;98965.85;135274;1282;22772;-70
2023/11/18 05:24:54;;;;;;;25.00;8.80;;;;;;;5.67;100.00;98965.25;135264;1282;23004;-72
2023/11/18 05:27:56;;;;;;;29.60;8.90;;;;;;;5.72;100.00;98967.86;135272;1282;22541;-71
2023/11/18 05:31:01;;;;;;;24.00;8.40;;;;;;;5.91;100.00;98966.95;135284;1282;22578;-73
2023/11/18 05:34:04;;;;;;;25.50;9.10;;;;;;;6.00;100.00;98968.16;135267;1282;22544;-68
2023/11/18 05:37:07;;;;;;;26.20;8.80;;;;;;;6.16;100.00;98967.52;135214;1282;22571;-67
2023/11/18 05:40:15;;;;;;;;;;;;;;;6.22;100.00;98968.68;135286;1282;22524;-71
2023/11/18 05:43:20;;;;;;;26.60;9.20;;;;;;;6.15;100.00;98965.30;135280;1282;22576;-70
2023/11/18 05:46:25;;;;;;;26.00;8.50;;;;;;;6.08;100.00;98967.50;135276;1282;24383;-71
2023/11/18 05:49:28;;;;;;;27.40;9.50;;;;;;;6.17;100.00;98977.73;135277;1282;22535;-73
2023/11/18 05:52:31;;;;;;;28.40;9.90;;;;;;;6.08;100.00;98990.25;135246;1282;22565;-72
2023/11/18 05:55:33;;;;;;;25.40;8.60;;;;;;;6.04;100.00;98997.18;135252;1282;25494;-70
2023/11/18 05:58:36;;;;;;;;;;;;;;;5.99;100.00;98998.92;135247;1282;22502;-71
2023/11/18 06:01:39;;;;;;;;;;;;;;;5.87;100.00;99002.65;135224;1282;25052;-72
2023/11/18 06:04:41;;;;;;;28.00;9.00;;;;;;;5.81;100.00;99006.71;135230;1282;22536;-69
2023/11/18 06:07:44;;;;;;;26.10;9.10;;;;;;;5.71;100.00;99006.57;135248;1282;22635;-69
2023/11/18 06:10:47;;;;;;;26.20;9.00;;;;;;;5.70;100.00;99006.09;135245;1282;22567;-74
2023/11/18 06:13:49;;;;;;;25.30;9.50;;;;;;;5.58;100.00;99012.60;135253;1282;22539;-74
2023/11/18 06:16:52;;;;;;;30.60;10.90;;;;;;;5.52;100.00;99020.29;135280;1264;22643;-72
2023/11/18 06:19:54;;;;;;;25.30;10.00;;;;;;;5.46;100.00;99023.30;135253;1282;22560;-66
2023/11/18 06:22:57;;;;;;;28.10;10.40;;;;;;;5.35;100.00;99027.32;135296;1282;22543;-71
2023/11/18 06:26:00;;;;;;;;;;;;;;;5.22;100.00;99029.02;135275;1282;24394;-65
2023/11/18 06:29:03;;;;;;;29.40;11.30;;;;;;;5.11;100.00;99030.10;135242;1282;24613;-71
2023/11/18 06:32:07;;;;;;;30.80;11.10;;;;;;;5.15;100.00;99030.48;135323;1282;22555;-72
2023/11/18 06:35:11;;;;;;;31.60;12.30;;;;;;;5.06;100.00;99037.36;135268;1282;22641;-72
2023/11/18 06:38:15;;;;;;;30.70;12.40;;;;;;;5.05;100.00;99045.22;135227;1264;22645;-67
2023/11/18 06:41:17;;;;;;;29.70;12.10;;;;;;;5.05;100.00;99052.50;135286;1282;22532;-72
2023/11/18 06:44:23;;;;;;;31.50;12.70;;;;;;;4.98;100.00;99061.58;135257;1282;22628;-69
2023/11/18 06:47:26;;;;;;;30.50;12.70;;;;;;;4.84;100.00;99066.91;135199;1282;22551;-72
2023/11/18 06:50:29;;;;;;;33.90;13.30;;;;;;;4.91;100.00;99070.66;135275;1282;22540;-71
2023/11/18 06:53:32;;;;;;;33.50;14.00;;;;;;;5.00;100.00;99071.21;135261;1282;22659;-71
2023/11/18 06:56:35;;;;;;;31.60;12.80;;;;;;;5.07;100.00;99071.52;135258;1282;22544;-70
2023/11/18 06:59:38;;;;;;;33.60;13.40;;;;;;;5.06;100.00;99073.42;135226;1282;22551;-70
2023/11/18 07:02:40;;;;;;;;;;;;;;;5.10;100.00;99075.39;135215;1282;22524;-71
2023/11/18 07:05:44;;;;;;;29.80;12.40;;;;;;;5.10;100.00;99076.75;135182;1282;22557;-71
2023/11/18 07:08:48;;;;;;;32.20;13.20;;;;;;;5.13;100.00;99084.09;135246;1282;22588;-70
2023/11/18 07:11:51;;;;;;;31.90;13.50;;;;;;;5.07;100.00;99090.23;135244;1282;22532;-67
2023/11/18 07:14:55;;;;;;;32.50;14.50;;;;;;;5.08;100.00;99092.77;135265;1282;22543;-72
2023/11/18 07:17:57;;;;;;;35.50;14.50;;;;;;;4.90;100.00;99104.63;135271;1260;22551;-73
2023/11/18 07:21:00;;;;;;;30.80;13.50;;;;;;;4.88;100.00;99108.70;135264;1282;22560;-72
2023/11/18 07:24:03;;;;;;;;;;;;;;;4.82;100.00;99100.58;135264;1263;22775;-72
2023/11/18 07:27:05;;;;;;;29.10;12.40;;;;;;;4.61;100.00;99110.10;135244;1282;22539;-72
2023/11/18 07:30:10;;;;;;;;;;;;;;;4.51;100.00;99114.92;135278;1264;24244;-73
2023/11/18 07:33:13;;;;;;;30.80;13.10;;;;;;;4.50;100.00;99124.13;135301;1282;22532;-72
2023/11/18 07:36:15;;;;;;;28.90;11.90;;;;;;;4.60;100.00;99125.71;135259;1282;22542;-72
2023/11/18 07:39:24;;;;;;;;;;;;;;;4.63;100.00;99126.47;135258;1282;22510;-71
2023/11/18 07:42:27;;;;;;;26.70;11.10;;;;;;;4.65;100.00;99132.85;135272;1282;22647;-71
2023/11/18 07:45:29;;;;;;;28.20;11.40;;;;;;;4.62;100.00;99134.49;135265;1282;22606;-71
2023/11/18 07:48:32;;;;;;;;;;;;;;;4.52;100.00;99135.67;135275;1282;22524;-74
2023/11/18 07:51:34;;;;;;;26.50;10.60;;;;;;;4.33;100.00;99137.81;135279;1282;22565;-71
2023/11/18 07:54:37;;;;;;;24.40;9.90;;;;;;;4.41;100.00;99143.46;135318;1282;22539;-70
2023/11/18 07:57:40;;;;;;;23.50;9.60;;;;;;;4.47;100.00;99145.68;135268;1282;22539;-73
2023/11/18 08:00:43;;;;;;;24.90;10.20;;;;;;;4.55;100.00;99148.04;135305;1282;22561;-71
2023/11/18 08:03:45;;;;;;;;;;;;;;;4.52;100.00;99152.45;135296;1282;22560;-73
2023/11/18 08:06:51;;;;;;;26.00;10.40;;;;;;;4.52;100.00;99155.08;135237;1282;22587;-74
2023/11/18 08:09:53;;;;;;;24.20;9.40;;;;;;;4.58;100.00;99158.84;135262;1282;25345;-70
2023/11/18 08:12:56;;;;;;;23.60;9.60;;;;;;;4.68;100.00;99162.70;135290;1282;22669;-72
2023/11/18 08:15:58;;;;;;;25.20;10.20;;;;;;;4.75;100.00;99170.44;135284;1282;22539;-71
2023/11/18 08:19:02;;;;;;;;;;;;;;;4.68;100.00;99172.92;135292;1265;22513;-72
2023/11/18 08:22:05;;;;;;;21.90;8.80;;;;;;;4.59;100.00;99172.16;135245;1282;25414;-72
2023/11/18 08:25:08;;;;;;;24.20;9.80;;;;;;;4.72;100.00;99176.77;135254;1282;22573;-71
2023/11/18 08:28:11;;;;;;;25.40;9.40;;;;;;;4.68;100.00;99180.20;135254;1282;22553;-74
2023/11/18 08:31:15;;;;;;;23.10;8.80;;;;;;;4.72;100.00;99177.14;135296;1282;22792;-71
2023/11/18 08:34:18;;;;;;;23.50;9.10;;;;;;;4.80;100.00;99181.04;135287;1282;22552;-73
2023/11/18 08:37:21;;;;;;;25.70;9.40;;;;;;;4.62;100.00;99190.93;135270;1282;22718;-72
2023/11/18 08:40:25;;;;;;;23.70;9.40;;;;;;;4.54;100.00;99187.77;135302;1282;22540;-71
2023/11/18 08:43:28;;;;;;;24.30;8.80;;;;;;;4.55;100.00;99196.20;135269;1282;24208;-72
2023/11/18 08:46:31;;;;;;;23.10;8.70;;;;;;;4.58;100.00;99205.63;135226;1282;22549;-70
2023/11/18 08:49:34;;;;;;;23.60;9.20;;;;;;;4.64;100.00;99205.27;135240;1264;22539;-70
2023/11/18 08:52:37;;;;;;;23.20;8.80;;;;;;;4.75;100.00;99208.38;135283;1272;22680;-70
2023/11/18 08:55:41;;;;;;;23.50;8.60;;;;;;;4.83;100.00;99213.51;135302;1282;22551;-74
2023/11/18 08:58:44;;;;;;;23.00;9.00;;;;;;;4.90;100.00;99218.86;135255;1282;22659;-73
2023/11/18 09:01:48;;;;;;;22.90;8.80;;;;;;;4.89;100.00;99221.84;135263;1282;22570;-71
2023/11/18 09:04:52;;;;;;;23.40;8.00;;;;;;;4.81;100.00;99225.54;135300;1264;22537;-71
2023/11/18 09:07:57;;;;;;;21.90;7.90;;;;;;;4.78;100.00;99227.71;135265;1282;22568;-71
2023/11/18 09:11:00;;;;;;;22.10;7.70;;;;;;;4.73;100.00;99233.59;135301;1282;22548;-70
2023/11/18 09:14:03;;;;;;;23.70;7.40;;;;;;;4.78;100.00;99238.11;135223;1282;25379;-71
2023/11/18 09:17:06;;;;;;;22.60;8.40;;;;;;;4.74;100.00;99240.67;135209;1282;22558;-72
2023/11/18 09:20:11;;;;;;;23.10;8.50;;;;;;;4.68;100.00;99248.45;135208;1282;22542;-72
2023/11/18 09:23:15;;;;;;;21.40;8.00;;;;;;;4.74;100.00;99247.21;135210;1282;22660;-72
2023/11/18 09:26:18;;;;;;;21.60;7.50;;;;;;;4.75;100.00;99251.20;135258;1271;22565;-71
2023/11/18 09:29:24;;;;;;;21.90;7.70;;;;;;;4.52;100.00;99249.98;135216;1282;22536;-71
2023/11/18 09:32:27;;;;;;;21.20;7.60;;;;;;;4.47;100.00;99249.06;135218;1282;22546;-71
2023/11/18 09:35:29;;;;;;;21.70;7.70;;;;;;;4.48;100.00;99246.44;135279;1282;22560;-71
2023/11/18 09:38:32;;;;;;;20.10;6.90;;;;;;;4.45;100.00;99253.82;135246;1282;22551;-72
2023/11/18 09:41:35;;;;;;;21.20;7.60;;;;;;;4.51;100.00;99254.85;135245;1282;22546;-70
2023/11/18 09:44:38;;;;;;;;;;;;;;;4.55;100.00;99252.83;135293;1282;25902;-71
2023/11/18 09:47:42;;;;;;;20.50;7.30;;;;;;;4.55;100.00;99251.09;135277;1282;22564;-71
2023/11/18 09:50:47;;;;;;;20.50;7.50;;;;;;;4.66;100.00;99251.63;135263;1282;22641;-71
2023/11/18 09:53:50;;;;;;;19.10;6.90;;;;;;;4.75;100.00;99254.66;135259;1264;22544;-71
2023/11/18 09:56:56;;;;;;;21.10;7.10;;;;;;;4.65;100.00;99263.45;135271;1282;22551;-69
2023/11/18 09:59:59;;;;;;;19.50;6.90;;;;;;;4.73;100.00;99263.04;135272;1282;22603;-70
2023/11/18 10:03:01;;;;;;;20.00;6.60;;;;;;;4.66;100.00;99268.61;135310;1282;22563;-71
2023/11/18 10:06:05;;;;;;;;;;;;;;;4.70;100.00;99266.08;135312;1282;24626;-71
2023/11/18 10:09:17;;;;;;;19.00;6.50;;;;;;;4.80;100.00;99267.85;135291;1282;22659;-70
2023/11/18 10:12:23;;;;;;;19.40;6.30;;;;;;;4.79;100.00;99271.33;135286;1282;22502;-71
2023/11/18 10:15:26;;;;;;;18.10;5.80;;;;;;;4.81;100.00;99269.23;135255;1264;24209;-71
2023/11/18 10:18:34;;;;;;;19.60;6.60;;;;;;;4.74;100.00;99273.94;135303;1282;22535;-73
2023/11/18 10:21:39;;;;;;;18.70;6.60;;;;;;;4.72;100.00;99269.30;135261;1282;22638;-70
2023/11/18 10:24:42;;;;;;;20.00;6.20;;;;;;;4.68;100.00;99278.42;135269;1282;22656;-71
2023/11/18 10:27:44;;;;;;;17.40;5.60;;;;;;;4.68;100.00;99285.88;135251;1282;22691;-71
2023/11/18 10:30:48;;;;;;;17.00;5.30;;;;;;;4.74;100.00;99282.91;135292;1282;22561;-71
2023/11/18 10:33:51;;;;;;;18.70;6.10;;;;;;;4.71;100.00;99292.19;135270;1264;22532;-72
2023/11/18 10:36:53;;;;;;;17.80;5.70;;;;;;;4.65;100.00;99292.03;135262;1282;24390;-72
2023/11/18 10:39:57;;;;;;;;;;;;;;;4.68;100.00;99295.41;135255;1282;22583;-71
2023/11/18 10:42:59;;;;;;;19.10;6.30;;;;;;;4.69;100.00;99305.60;135245;1282;22542;-72
2023/11/18 10:46:03;;;;;;;;;;;;;;;4.75;100.00;99306.47;135277;1276;22529;-72
2023/11/18 10:49:09;;;;;;;18.20;6.00;;;;;;;4.79;100.00;99305.47;135258;1282;24385;-72
2023/11/18 10:52:12;;;;;;;17.30;5.40;;;;;;;4.69;100.00;99309.75;135235;1282;22535;-72
2023/11/18 10:55:19;;;;;;;16.00;5.30;;;;;;;4.62;100.00;99312.21;135254;1282;26551;-70
2023/11/18 10:58:21;;;;;;;17.30;5.30;;;;;;;4.66;100.00;99315.55;135250;1282;22554;-72
2023/11/18 11:01:24;;;;;;;19.00;5.80;;;;;;;4.62;100.00;99311.34;135236;1282;22539;-71
2023/11/18 11:04:26;;;;;;;15.80;5.30;;;;;;;4.62;100.00;99320.53;135231;1282;22553;-71
2023/11/18 11:07:29;;;;;;;17.60;5.70;;;;;;;4.54;100.00;99327.85;135257;1282;22536;-72
2023/11/18 11:10:32;;;;;;;;;;;;;;;4.57;100.00;99330.20;135251;1282;22520;-71
2023/11/18 11:13:37;;;;;;;17.90;5.90;;;;;;;4.46;100.00;99334.83;135244;1282;22555;-72
2023/11/18 11:16:43;;;;;;;17.90;4.90;;;;;;;4.54;100.00;99334.41;135261;1282;22535;-71
2023/11/18 11:19:48;;;;;;;17.20;5.00;;;;;;;4.59;100.00;99334.82;135278;1282;22645;-72
2023/11/18 11:22:52;;;;;;;19.40;5.20;;;;;;;4.64;100.00;99338.66;135236;1282;22614;-71
2023/11/18 11:25:57;;;;;;;19.50;6.20;;;;;;;4.66;100.00;99339.45;135286;1282;22550;-70
2023/11/18 11:28:59;;;;;;;17.00;5.90;;;;;;;4.93;100.00;99344.41;135232;1282;22563;-70
2023/11/18 11:32:03;;;;;;;;;;;;;;;4.84;100.00;99345.52;135249;1282;22619;-69
2023/11/18 11:35:07;;;;;;;18.10;5.60;;;;;;;4.94;100.00;99352.71;135590;1279;22555;-70
2023/11/18 11:38:13;;;;;;;16.20;5.20;;;;;;;4.86;100.00;99356.06;135513;1279;22569;-71
2023/11/18 11:41:19;;;;;;;16.20;5.10;;;;;;;4.78;100.00;99357.83;135560;1279;22589;-71
2023/11/18 11:44:28;;;;;;;15.80;5.10;;;;;;;4.60;100.00;99363.36;135589;1279;22529;-71
2023/11/18 11:47:36;;;;;;;17.00;5.40;;;;;;;4.56;100.00;99359.66;135599;1279;22549;-71
2023/11/18 11:50:38;;;;;;;18.60;5.70;;;;;;;4.71;100.00;99362.17;135604;1279;22533;-70
2023/11/18 11:53:45;;;;;;;16.30;5.00;;;;;;;4.77;100.00;99369.83;135589;1279;22555;-72
2023/11/18 11:56:49;;;;;;;17.40;5.90;;;;;;;4.68;100.00;99379.60;135585;1279;22531;-71
2023/11/18 11:59:53;;;;;;;18.20;5.80;;;;;;;4.62;100.00;99381.16;135554;1279;22638;-72
2023/11/18 12:02:57;;;;;;;16.40;5.50;;;;;;;4.58;100.00;99387.86;135535;1279;22533;-71
2023/11/18 12:06:07;;;;;;;16.60;5.00;;;;;;;4.54;100.00;99396.79;135567;1279;22565;-70
2023/11/18 12:09:10;;;;;;;15.20;4.80;;;;;;;4.66;100.00;99393.34;135570;1279;22558;-72
2023/11/18 12:12:12;;;;;;;;;;;;;;;4.64;100.00;99393.05;135552;1279;22629;-71
2023/11/18 12:15:17;;;;;;;17.70;5.50;;;;;;;4.71;100.00;99392.52;135542;1279;22560;-71
2023/11/18 12:18:21;;;;;;;17.60;5.50;;;;;;;4.77;100.00;99393.56;135585;1279;22578;-71
2023/11/18 12:21:24;;;;;;;15.30;5.20;;;;;;;4.82;100.00;99397.04;135556;1279;22565;-70
2023/11/18 12:24:29;;;;;;;15.90;5.20;;;;;;;4.78;100.00;99397.16;135603;1279;22525;-72
2023/11/18 12:27:32;;;;;;;20.00;5.90;;;;;;;4.72;100.00;99402.36;135595;1279;22530;-71
2023/11/18 12:30:36;;;;;;;17.10;5.20;;;;;;;4.66;100.00;99398.73;135599;1279;22562;-72
2023/11/18 12:33:39;;;;;;;16.70;5.40;;;;;;;4.65;100.00;99402.02;135605;1279;22577;-72
2023/11/18 12:36:43;;;;;;;17.50;5.70;;;;;;;4.76;100.00;99406.59;135623;1279;22649;-71
2023/11/18 12:39:50;;;;;;;17.50;5.90;;;;;;;4.64;100.00;99419.02;135588;1278;22729;-70
2023/11/18 12:42:53;;;;;;;17.70;5.50;;;;;;;4.43;100.00;99431.38;135622;1279;22532;-71
2023/11/18 12:45:56;;;;;;;15.50;5.30;;;;;;;4.34;100.00;99428.67;135570;1279;22645;-72
2023/11/18 12:49:02;;;;;;;16.90;5.40;;;;;;;4.38;100.00;99433.40;135599;1279;22547;-72
2023/11/18 12:52:08;;;;;;;17.50;5.90;;;;;;;4.46;100.00;99435.27;135595;1279;24206;-73
2023/11/18 12:55:11;;;;;;;17.30;5.60;;;;;;;4.40;100.00;99441.66;135604;1278;22529;-70
2023/11/18 12:58:13;;;;;;;19.70;6.10;;;;;;;4.37;100.00;99438.09;135615;1278;22599;-70
2023/11/18 13:01:16;;;;;;;16.80;5.50;;;;;;;4.30;100.00;99447.27;135597;1278;22542;-72
2023/11/18 13:04:19;;;;;;;;;;;;;;;4.26;100.00;99451.36;135576;1278;22511;-71
2023/11/18 13:07:22;;;;;;;17.00;5.40;;;;;;;4.35;100.00;99450.62;135605;1278;24285;-72
2023/11/18 13:10:26;;;;;;;;;;;;;;;4.39;100.00;99453.98;135630;1278;22638;-72
2023/11/18 13:13:29;;;;;;;22.50;6.80;;;;;;;4.43;100.00;99452.52;135609;1259;22533;-70
2023/11/18 13:16:32;;;;;;;20.60;6.90;;;;;;;4.40;100.00;99451.88;135606;1278;22555;-68
2023/11/18 13:19:35;;;;;;;18.60;6.40;;;;;;;4.42;100.00;99458.60;135587;1278;22556;-70
2023/11/18 13:22:39;;;;;;;19.70;6.70;;;;;;;4.46;100.00;99467.48;135548;1278;23042;-72
2023/11/18 13:25:41;;;;;;;21.10;7.20;;;;;;;4.32;100.00;99477.35;135610;1278;22561;-72
2023/11/18 13:28:47;;;;;;;20.70;7.20;;;;;;;4.36;100.00;99482.13;135614;1278;22536;-71
2023/11/18 13:31:50;;;;;;;19.70;6.70;;;;;;;4.40;100.00;99478.39;135620;1278;22536;-72
2023/11/18 13:34:53;;;;;;;18.10;6.30;;;;;;;4.42;100.00;99483.01;135576;1279;22655;-70
2023/11/18 13:37:58;;;;;;;20.00;6.50;;;;;;;4.46;100.00;99488.27;135580;1279;22548;-73
2023/11/18 13:41:03;;;;;;;22.40;7.20;;;;;;;4.41;100.00;99491.50;135577;1279;22592;-72
2023/11/18 13:44:14;;;;;;;21.50;7.80;;;;;;;4.37;100.00;99496.96;131448;1279;5431376;-71
2023/11/18 13:47:16;;;;;;;20.20;7.60;;;;;;;4.32;100.00;99502.65;135572;1279;25455;-71
2023/11/18 13:50:19;;;;;;;21.50;7.50;;;;;;;4.28;100.00;99503.08;135587;1279;24066;-72
2023/11/18 13:53:21;;;;;;;;;;;;;;;4.29;100.00;99502.73;135586;1279;22528;-72
2023/11/18 13:56:27;;;;;;;20.00;7.30;;;;;;;4.35;100.00;99500.66;135578;1279;22556;-64
2023/11/18 13:59:30;;;;;;;20.80;6.90;;;;;;;4.34;100.00;99501.02;135583;1262;24213;-72
2023/11/18 14:02:33;;;;;;;;;;;;;;;4.34;100.00;99505.88;135587;1279;25360;-71
2023/11/18 14:05:37;;;;;;;22.50;7.30;;;;;;;4.30;100.00;99512.90;135614;1279;22529;-71
2023/11/18 14:08:39;;;;;;;21.10;7.70;;;;;;;4.29;100.00;99512.93;135614;1279;22554;-68
2023/11/18 14:11:42;;;;;;;;;;;;;;;4.23;100.00;99513.07;135647;1279;22510;-71
2023/11/18 14:14:45;;;;;;;20.80;7.70;;;;;;;4.18;100.00;99517.17;135580;1275;22536;-71